Time;durP1;ratioP1;P1;durP2;ratioP2;P2;SDS_P1;SDS_P2;PMS_P1;PMS_P2;Temp;Humidity;BMP_temperature;BMP_pressure;BME280_temperature;BME280_humidity;BME280_pressure;Samples;Min_cycle;Max_cycle;Signal;HPM_P1;HPM_P2
2022/06/01 00:04:37;;;;;;;4.17;2.70;;;16.70;77.80;;;;;;21090759;28;20199;-64
2022/06/01 00:14:38;;;;;;;4.70;3.20;;;16.60;78.20;;;;;;21090297;28;20312;-66
2022/06/01 00:24:42;;;;;;;4.77;3.13;;;16.40;79.30;;;;;;21018130;28;20270;-67
2022/06/01 00:34:44;;;;;;;3.60;3.13;;;16.10;81.00;;;;;;21004399;28;20301;-69
2022/06/01 00:44:46;;;;;;;5.20;3.13;;;15.80;82.30;;;;;;21004251;28;20209;-70
2022/06/01 00:54:48;;;;;;;4.57;3.20;;;15.50;83.10;;;;;;21003094;28;20258;-64
2022/06/01 01:04:50;;;;;;;6.60;3.77;;;15.30;83.60;;;;;;21002210;28;20204;-66
2022/06/01 01:14:51;;;;;;;3.73;3.10;;;15.10;84.30;;;;;;21001567;28;20280;-67
2022/06/01 01:25:12;;;;;;;3.90;3.27;;;15.00;84.90;;;;;;21000234;28;20230;-70
2022/06/01 01:35:14;;;;;;;5.77;3.50;;;14.90;85.00;;;;;;20999274;28;20238;-71
2022/06/01 01:45:28;;;;;;;4.50;3.23;;;14.90;85.40;;;;;;20999142;28;20253;-61
2022/06/01 01:55:39;;;;;;;5.50;3.60;;;14.70;85.90;;;;;;20998073;28;20242;-70
2022/06/01 02:16:05;;;;;;;4.37;3.27;;;14.30;86.30;;;;;;20997089;28;20265;-71
2022/06/01 02:26:09;;;;;;;3.60;3.13;;;14.20;86.70;;;;;;20993026;28;20293;-74
2022/06/01 02:36:15;;;;;;;3.80;3.20;;;14.10;86.70;;;;;;20995264;28;20254;-74
2022/06/01 02:46:16;;;;;;;4.33;3.47;;;13.90;86.70;;;;;;20995288;28;20206;-70
2022/06/01 02:56:19;;;;;;;6.43;3.97;;;13.80;86.20;;;;;;20995065;28;20713;-71
2022/06/01 03:06:21;;;;;;;3.77;3.37;;;13.80;86.90;;;;;;20994751;28;20620;-74
2022/06/01 03:16:23;;;;;;;4.40;3.50;;;13.60;87.00;;;;;;20994266;28;20236;-72
2022/06/01 03:26:26;;;;;;;6.40;4.00;;;13.50;87.30;;;;;;20993483;28;20226;-72
2022/06/01 03:36:28;;;;;;;6.90;3.40;;;13.60;87.40;;;;;;20993045;28;20245;-71
2022/06/01 03:46:33;;;;;;;4.37;3.63;;;13.60;87.60;;;;;;20992696;28;20305;-75
2022/06/01 03:56:35;;;;;;;6.37;4.10;;;13.50;87.10;;;;;;20993287;28;20606;-75
2022/06/01 04:06:37;;;;;;;5.23;3.80;;;13.40;87.10;;;;;;21006942;28;20300;-74
2022/06/01 04:16:39;;;;;;;9.83;3.93;;;13.40;87.50;;;;;;21006187;28;20231;-61
2022/06/01 04:26:41;;;;;;;8.43;3.97;;;13.50;87.70;;;;;;21002279;28;20274;-69
2022/06/01 04:36:43;;;;;;;7.40;4.70;;;13.80;87.60;;;;;;21004108;28;20710;-72
2022/06/01 04:46:45;;;;;;;8.03;5.30;;;13.80;87.70;;;;;;21003345;28;20264;-69
2022/06/01 04:56:47;;;;;;;11.07;4.50;;;13.80;88.10;;;;;;21002523;28;20643;-62
2022/06/01 05:06:49;;;;;;;8.83;4.80;;;13.80;88.60;;;;;;21000137;28;20282;-62
2022/06/01 05:16:51;;;;;;;12.53;6.20;;;13.90;88.70;;;;;;20999796;28;20595;-69
2022/06/01 05:26:53;;;;;;;13.73;7.30;;;14.20;88.90;;;;;;20998359;28;20689;-62
2022/06/01 05:36:55;;;;;;;10.33;5.43;;;14.40;89.10;;;;;;20997295;28;20242;-63
2022/06/01 05:46:59;;;;;;;12.23;4.77;;;14.70;89.70;;;;;;20995695;28;20207;-63
2022/06/01 05:57:00;;;;;;;9.07;5.40;;;15.00;88.90;;;;;;20996797;28;20295;-66
2022/06/01 06:07:06;;;;;;;16.97;5.00;;;15.40;88.70;;;;;;20996431;28;20572;-64
2022/06/01 06:17:07;;;;;;;9.07;5.40;;;15.60;87.90;;;;;;20994695;28;20328;-67
2022/06/01 06:27:09;;;;;;;7.23;4.10;;;15.90;87.50;;;;;;20989319;28;20231;-64
2022/06/01 06:37:11;;;;;;;12.27;4.23;;;16.00;86.50;;;;;;20993098;28;20271;-65
2022/06/01 06:47:13;;;;;;;10.93;4.20;;;16.10;85.90;;;;;;20992244;28;20209;-66
2022/06/01 06:57:15;;;;;;;22.07;5.53;;;16.40;85.10;;;;;;20991087;28;20280;-67
2022/06/01 07:07:17;;;;;;;4.40;3.23;;;16.60;83.80;;;;;;20990513;28;20211;-69
2022/06/01 07:17:18;;;;;;;8.80;3.53;;;17.00;82.50;;;;;;20992039;28;20242;-68
2022/06/01 07:27:20;;;;;;;7.67;3.00;;;17.20;78.30;;;;;;20991578;28;20240;-68
2022/06/01 07:47:42;;;;;;;8.17;5.87;;;17.50;74.00;;;;;;21006993;28;20733;-64
2022/06/01 07:58:04;;;;;;;6.77;2.47;;;17.70;71.80;;;;;;21008288;28;20236;-65
2022/06/01 08:08:07;;;;;;;3.73;2.40;;;18.00;68.40;;;;;;21009011;28;20209;-64
2022/06/01 08:18:10;;;;;;;5.23;2.47;;;18.30;65.10;;;;;;21004321;28;20252;-73
2022/06/01 08:28:12;;;;;;;3.37;2.10;;;18.40;63.40;;;;;;21000916;28;20286;-70
2022/06/01 08:38:15;;;;;;;5.87;2.27;;;18.60;61.00;;;;;;21002531;28;20326;-73
2022/06/01 08:48:24;;;;;;;4.20;2.03;;;18.80;59.60;;;;;;21000359;28;20209;-71
2022/06/01 08:58:38;;;;;;;3.03;2.10;;;19.00;58.60;;;;;;21001544;28;20245;-72
2022/06/01 09:08:54;;;;;;;8.17;3.03;;;19.30;58.20;;;;;;20999110;28;20211;-73
2022/06/01 09:18:56;;;;;;;6.03;2.73;;;19.50;57.70;;;;;;20998622;28;20284;-68
2022/06/01 09:29:02;;;;;;;4.40;2.73;;;19.70;57.10;;;;;;20997353;28;20238;-70
2022/06/01 09:39:04;;;;;;;5.70;2.57;;;19.90;56.90;;;;;;20996713;28;20264;-64
2022/06/01 09:49:25;;;;;;;5.93;2.37;;;20.10;56.60;;;;;;20995390;28;20206;-67
2022/06/01 10:10:02;;;;;;;7.80;2.80;;;20.50;55.10;;;;;;20994975;28;20265;-66
2022/06/01 10:20:19;;;;;;;6.10;2.87;;;20.50;54.20;;;;;;20995028;28;20238;-65
2022/06/01 10:30:23;;;;;;;5.80;2.80;;;20.40;54.20;;;;;;20991778;28;20236;-67
2022/06/01 10:40:47;;;;;;;4.03;2.07;;;20.40;53.50;;;;;;20995353;28;20234;-72
2022/06/01 10:51:10;;;;;;;4.83;2.63;;;20.50;53.20;;;;;;20984879;28;20230;-75
2022/06/01 11:01:39;;;;;;;6.23;2.47;;;20.80;53.20;;;;;;20991426;28;20548;-72
2022/06/01 11:12:20;;;;;;;8.00;2.77;;;21.00;52.80;;;;;;21001670;28;20694;-65
2022/06/01 11:22:33;;;;;;;3.83;1.80;;;21.30;53.00;;;;;;20996614;28;20279;-73
2022/06/01 11:32:58;;;;;;;8.40;6.30;;;21.40;50.90;;;;;;21006806;28;20252;-71
2022/06/01 11:43:08;;;;;;;3.60;2.40;;;21.60;49.50;;;;;;21006857;28;20214;-71
2022/06/01 11:53:18;;;;;;;12.67;4.37;;;21.60;48.70;;;;;;21006203;28;20329;-75
2022/06/01 12:03:24;;;;;;;46.93;17.27;;;21.80;47.60;;;;;;21053458;28;20539;-70
2022/06/01 12:13:49;;;;;;;30.27;12.73;;;21.70;47.50;;;;;;21089462;28;20324;-72
2022/06/01 12:34:32;;;;;;;2.00;1.40;;;22.30;46.80;;;;;;21000529;28;20231;-72
2022/06/01 12:44:35;;;;;;;5.10;2.00;;;22.40;47.30;;;;;;21002273;28;20210;-71
2022/06/01 12:54:51;;;;;;;3.20;2.00;;;22.40;46.50;;;;;;21001346;28;20237;-73
2022/06/01 13:04:56;;;;;;;5.53;1.80;;;22.20;45.80;;;;;;20999276;28;20301;-73
2022/06/01 13:15:26;;;;;;;5.53;1.80;;;22.40;45.70;;;;;;21001653;28;20239;-70
2022/06/01 13:25:32;;;;;;;5.80;2.07;;;22.30;45.40;;;;;;20999820;28;20324;-64
2022/06/01 13:35:37;;;;;;;3.60;1.70;;;22.40;45.00;;;;;;20998040;28;20230;-64
2022/06/01 13:46:06;;;;;;;2.53;1.37;;;22.60;44.90;;;;;;20998611;28;20213;-65
2022/06/01 13:56:15;;;;;;;9.43;1.90;;;22.70;45.00;;;;;;20997557;28;20235;-66
2022/06/01 14:06:17;;;;;;;4.13;1.77;;;22.70;44.70;;;;;;20997063;28;20206;-62
2022/06/01 14:16:20;;;;;;;5.80;1.57;;;22.50;44.30;;;;;;20996811;28;20265;-61
2022/06/01 14:36:43;;;;;;;2.93;1.60;;;23.00;43.30;;;;;;20992306;28;20307;-71
2022/06/01 14:46:45;;;;;;;1.50;1.40;;;23.00;42.30;;;;;;20991050;28;20215;-64
2022/06/01 14:56:47;;;;;;;5.40;3.17;;;23.60;42.40;;;;;;20994192;28;20304;-61
2022/06/01 15:06:49;;;;;;;2.27;1.93;;;23.50;41.30;;;;;;20993936;28;20553;-66
2022/06/01 15:16:55;;;;;;;1.60;1.50;;;23.30;41.90;;;;;;20993598;28;21199;-68
2022/06/01 15:26:57;;;;;;;2.13;1.73;;;23.30;42.10;;;;;;20993112;28;20710;-64
2022/06/01 15:47:19;;;;;;;3.43;2.37;;;23.20;42.80;;;;;;20992927;28;20203;-66
2022/06/01 15:57:21;;;;;;;4.33;1.43;;;23.40;42.90;;;;;;21001297;28;20239;-71
2022/06/01 16:07:23;;;;;;;1.80;1.40;;;24.50;42.00;;;;;;21006807;28;20207;-65
2022/06/01 16:17:29;;;;;;;7.10;1.70;;;26.10;40.30;;;;;;21005900;28;20592;-69
2022/06/01 16:27:37;;;;;;;6.17;2.20;;;24.90;40.20;;;;;;21004749;28;20241;-64
2022/06/01 16:37:39;;;;;;;2.47;1.70;;;23.80;41.00;;;;;;21017654;28;20234;-63
2022/06/01 16:47:41;;;;;;;2.60;1.47;;;23.20;41.70;;;;;;21003998;28;20204;-72
2022/06/01 16:57:43;;;;;;;2.33;1.23;;;22.90;42.10;;;;;;21003899;28;20292;-64
2022/06/01 17:07:46;;;;;;;4.87;1.40;;;22.70;42.20;;;;;;21001650;28;20208;-63
2022/06/01 17:17:54;;;;;;;2.33;1.47;;;22.60;42.30;;;;;;21001885;28;20642;-65
2022/06/01 17:27:57;;;;;;;3.07;1.90;;;23.10;42.00;;;;;;21001073;28;20230;-64
2022/06/01 17:38:01;;;;;;;2.17;1.50;;;23.10;42.40;;;;;;21000137;28;20227;-64
2022/06/01 17:48:08;;;;;;;8.13;1.40;;;23.00;41.60;;;;;;20999185;28;20269;-64
2022/06/01 17:58:13;;;;;;;1.47;1.20;;;23.40;40.80;;;;;;20998314;28;20634;-62
2022/06/01 18:08:25;;;;;;;4.03;1.90;;;22.80;40.40;;;;;;21074788;28;20206;-62
2022/06/01 18:18:27;;;;;;;1.60;1.50;;;22.20;40.70;;;;;;21079074;28;20268;-64
2022/06/01 18:28:33;;;;;;;2.83;1.40;;;21.80;41.40;;;;;;21040515;28;20292;-63
2022/06/01 18:38:35;;;;;;;4.97;1.47;;;21.60;43.50;;;;;;21006988;28;20284;-61
2022/06/01 18:48:38;;;;;;;2.20;1.40;;;21.50;44.50;;;;;;21078541;28;20206;-62
2022/06/01 18:58:40;;;;;;;5.50;1.63;;;21.20;45.20;;;;;;21008797;28;20311;-62
2022/06/01 19:08:41;;;;;;;2.83;2.17;;;21.00;45.90;;;;;;20994776;28;20210;-61
2022/06/01 19:18:43;;;;;;;6.93;2.73;;;20.70;46.40;;;;;;21148881;28;20241;-61
2022/06/01 19:28:46;;;;;;;2.37;1.30;;;20.50;46.90;;;;;;21158539;28;20455;-61
2022/06/01 19:49:08;;;;;;;4.97;1.70;;;20.20;47.60;;;;;;21174606;28;20253;-68
2022/06/01 19:59:11;;;;;;;5.40;1.33;;;20.00;47.90;;;;;;21173681;28;20276;-63
2022/06/01 20:09:13;;;;;;;5.70;1.73;;;19.90;48.40;;;;;;21173020;28;20207;-68
2022/06/01 20:19:18;;;;;;;4.17;1.60;;;19.60;48.90;;;;;;21172211;28;20258;-67
2022/06/01 20:29:20;;;;;;;2.70;1.97;;;19.50;49.60;;;;;;21171664;28;20235;-69
2022/06/01 20:39:22;;;;;;;5.43;2.10;;;19.20;51.00;;;;;;21175810;28;20284;-72
2022/06/01 20:49:24;;;;;;;4.47;2.30;;;18.80;51.70;;;;;;21170221;28;20251;-75
2022/06/01 20:59:26;;;;;;;9.20;5.70;;;18.50;52.50;;;;;;21171463;28;20244;-77
2022/06/01 21:09:28;;;;;;;3.50;2.10;;;18.20;53.30;;;;;;21168624;28;20206;-73
2022/06/01 21:19:29;;;;;;;2.10;1.63;;;18.10;54.10;;;;;;20998745;28;20242;-76
2022/06/01 21:29:31;;;;;;;1.87;1.60;;;18.00;55.30;;;;;;21001009;28;20242;-75
2022/06/01 21:39:33;;;;;;;4.73;1.50;;;17.80;55.70;;;;;;21000031;28;20584;-77
2022/06/01 21:49:36;;;;;;;2.47;1.53;;;17.60;56.00;;;;;;20999094;28;20604;-71
2022/06/01 21:59:40;;;;;;;2.50;1.70;;;17.30;56.50;;;;;;20998753;28;20235;-78
2022/06/01 22:09:42;;;;;;;6.63;1.60;;;17.20;56.50;;;;;;20998839;28;20199;-77
2022/06/01 22:19:44;;;;;;;3.27;1.77;;;17.00;56.80;;;;;;21034323;28;20289;-77
2022/06/01 22:29:48;;;;;;;2.93;1.57;;;16.80;57.40;;;;;;21077181;28;20230;-61
2022/06/01 22:39:54;;;;;;;2.87;1.70;;;16.70;57.70;;;;;;21080052;28;20233;-72
2022/06/01 22:50:03;;;;;;;5.47;1.93;;;16.50;58.20;;;;;;21079016;28;20209;-63
2022/06/01 23:00:08;;;;;;;5.50;1.90;;;16.50;58.50;;;;;;21078749;28;20244;-74
2022/06/01 23:10:11;;;;;;;4.57;2.00;;;16.50;58.50;;;;;;21077617;28;20600;-73
2022/06/01 23:20:26;;;;;;;4.30;1.80;;;16.50;58.80;;;;;;21077401;28;20231;-66
2022/06/01 23:30:36;;;;;;;2.33;1.80;;;16.50;59.00;;;;;;21077724;28;20233;-60
2022/06/01 23:40:59;;;;;;;1.90;1.70;;;16.50;59.00;;;;;;21077598;28;20234;-67
2022/06/01 23:51:20;;;;;;;3.87;2.07;;;16.50;59.20;;;;;;21076459;28;20254;-64
